sensor_id;sensor_type;location;lat;lon;timestamp;P1;durP1;ratioP1;P2;durP2;ratioP2
28822;SDS011;15961;54.678;9.110;2022-10-22T00:00:25;85.10;;;44.33;;
28822;SDS011;15961;54.678;9.110;2022-10-22T00:02:51;85.45;;;43.33;;
28822;SDS011;15961;54.678;9.110;2022-10-22T00:05:16;81.43;;;43.90;;
28822;SDS011;15961;54.678;9.110;2022-10-22T00:07:42;76.53;;;40.97;;
28822;SDS011;15961;54.678;9.110;2022-10-22T00:10:08;72.00;;;41.05;;
28822;SDS011;15961;54.678;9.110;2022-10-22T00:12:33;94.85;;;45.30;;
28822;SDS011;15961;54.678;9.110;2022-10-22T00:14:59;76.97;;;41.25;;
28822;SDS011;15961;54.678;9.110;2022-10-22T00:17:25;67.28;;;37.92;;
28822;SDS011;15961;54.678;9.110;2022-10-22T00:19:50;62.08;;;36.20;;
28822;SDS011;15961;54.678;9.110;2022-10-22T00:22:16;70.47;;;38.40;;
28822;SDS011;15961;54.678;9.110;2022-10-22T00:24:41;64.05;;;35.75;;
28822;SDS011;15961;54.678;9.110;2022-10-22T00:27:07;57.45;;;34.45;;
28822;SDS011;15961;54.678;9.110;2022-10-22T00:29:34;56.78;;;32.35;;
28822;SDS011;15961;54.678;9.110;2022-10-22T00:32:00;64.03;;;33.22;;
28822;SDS011;15961;54.678;9.110;2022-10-22T00:34:26;72.13;;;37.45;;
28822;SDS011;15961;54.678;9.110;2022-10-22T00:36:52;77.53;;;40.92;;
28822;SDS011;15961;54.678;9.110;2022-10-22T00:39:18;82.80;;;39.83;;
28822;SDS011;15961;54.678;9.110;2022-10-22T00:41:46;80.47;;;41.03;;
28822;SDS011;15961;54.678;9.110;2022-10-22T00:47:16;75.43;;;40.47;;
28822;SDS011;15961;54.678;9.110;2022-10-22T00:49:43;84.45;;;44.42;;
28822;SDS011;15961;54.678;9.110;2022-10-22T00:52:10;85.65;;;43.83;;
28822;SDS011;15961;54.678;9.110;2022-10-22T00:54:36;74.05;;;40.67;;
28822;SDS011;15961;54.678;9.110;2022-10-22T00:57:03;71.72;;;36.83;;
28822;SDS011;15961;54.678;9.110;2022-10-22T00:59:29;76.30;;;42.22;;
28822;SDS011;15961;54.678;9.110;2022-10-22T01:01:55;67.65;;;36.50;;
28822;SDS011;15961;54.678;9.110;2022-10-22T01:04:21;73.50;;;39.75;;
28822;SDS011;15961;54.678;9.110;2022-10-22T01:06:46;66.57;;;38.00;;
28822;SDS011;15961;54.678;9.110;2022-10-22T01:09:18;92.82;;;45.13;;
28822;SDS011;15961;54.678;9.110;2022-10-22T01:12:45;86.47;;;42.97;;
28822;SDS011;15961;54.678;9.110;2022-10-22T01:18:12;85.20;;;44.53;;
28822;SDS011;15961;54.678;9.110;2022-10-22T01:20:45;80.18;;;42.58;;
28822;SDS011;15961;54.678;9.110;2022-10-22T01:23:44;85.13;;;44.88;;
28822;SDS011;15961;54.678;9.110;2022-10-22T01:26:39;86.25;;;44.10;;
28822;SDS011;15961;54.678;9.110;2022-10-22T01:32:21;100.82;;;48.03;;
28822;SDS011;15961;54.678;9.110;2022-10-22T01:34:49;92.80;;;46.55;;
28822;SDS011;15961;54.678;9.110;2022-10-22T01:37:18;105.22;;;49.85;;
28822;SDS011;15961;54.678;9.110;2022-10-22T01:39:47;114.28;;;51.13;;
28822;SDS011;15961;54.678;9.110;2022-10-22T01:42:14;108.05;;;46.83;;
28822;SDS011;15961;54.678;9.110;2022-10-22T01:44:40;107.90;;;50.45;;
28822;SDS011;15961;54.678;9.110;2022-10-22T01:55:01;98.88;;;45.72;;
28822;SDS011;15961;54.678;9.110;2022-10-22T01:57:41;112.43;;;50.63;;
28822;SDS011;15961;54.678;9.110;2022-10-22T02:00:13;95.60;;;44.67;;
28822;SDS011;15961;54.678;9.110;2022-10-22T02:03:01;102.10;;;46.22;;
28822;SDS011;15961;54.678;9.110;2022-10-22T02:08:15;93.30;;;43.55;;
28822;SDS011;15961;54.678;9.110;2022-10-22T02:10:44;111.90;;;48.78;;
28822;SDS011;15961;54.678;9.110;2022-10-22T02:13:13;119.60;;;48.65;;
28822;SDS011;15961;54.678;9.110;2022-10-22T02:15:42;102.85;;;47.80;;
28822;SDS011;15961;54.678;9.110;2022-10-22T02:18:09;103.30;;;48.45;;
28822;SDS011;15961;54.678;9.110;2022-10-22T02:20:36;132.13;;;54.97;;
28822;SDS011;15961;54.678;9.110;2022-10-22T02:23:02;141.43;;;53.75;;
28822;SDS011;15961;54.678;9.110;2022-10-22T02:25:30;125.38;;;51.92;;
28822;SDS011;15961;54.678;9.110;2022-10-22T02:28:03;126.63;;;52.00;;
28822;SDS011;15961;54.678;9.110;2022-10-22T02:30:45;132.05;;;57.03;;
28822;SDS011;15961;54.678;9.110;2022-10-22T02:33:17;111.47;;;51.33;;
28822;SDS011;15961;54.678;9.110;2022-10-22T02:36:03;132.02;;;54.58;;
28822;SDS011;15961;54.678;9.110;2022-10-22T02:38:30;152.93;;;58.15;;
28822;SDS011;15961;54.678;9.110;2022-10-22T02:40:58;119.78;;;53.15;;
28822;SDS011;15961;54.678;9.110;2022-10-22T02:43:24;153.65;;;60.03;;
28822;SDS011;15961;54.678;9.110;2022-10-22T02:45:49;138.48;;;57.35;;
28822;SDS011;15961;54.678;9.110;2022-10-22T02:48:15;149.02;;;56.05;;
28822;SDS011;15961;54.678;9.110;2022-10-22T02:50:41;181.02;;;59.80;;
28822;SDS011;15961;54.678;9.110;2022-10-22T02:53:07;173.55;;;57.90;;
28822;SDS011;15961;54.678;9.110;2022-10-22T02:55:32;148.95;;;58.22;;
28822;SDS011;15961;54.678;9.110;2022-10-22T02:57:58;286.67;;;65.53;;
28822;SDS011;15961;54.678;9.110;2022-10-22T03:00:23;547.95;;;74.28;;
28822;SDS011;15961;54.678;9.110;2022-10-22T03:02:49;135.80;;;55.33;;
28822;SDS011;15961;54.678;9.110;2022-10-22T03:05:14;223.68;;;58.38;;
28822;SDS011;15961;54.678;9.110;2022-10-22T03:07:40;139.52;;;53.97;;
28822;SDS011;15961;54.678;9.110;2022-10-22T03:10:05;117.00;;;52.85;;
28822;SDS011;15961;54.678;9.110;2022-10-22T03:12:31;250.20;;;62.72;;
28822;SDS011;15961;54.678;9.110;2022-10-22T03:14:56;123.43;;;56.00;;
28822;SDS011;15961;54.678;9.110;2022-10-22T03:17:22;129.32;;;57.50;;
28822;SDS011;15961;54.678;9.110;2022-10-22T03:19:48;166.35;;;56.05;;
28822;SDS011;15961;54.678;9.110;2022-10-22T03:22:14;129.23;;;54.45;;
28822;SDS011;15961;54.678;9.110;2022-10-22T03:24:46;128.85;;;55.80;;
28822;SDS011;15961;54.678;9.110;2022-10-22T03:27:14;181.13;;;59.67;;
28822;SDS011;15961;54.678;9.110;2022-10-22T03:29:42;149.75;;;60.45;;
28822;SDS011;15961;54.678;9.110;2022-10-22T03:32:08;293.10;;;69.72;;
28822;SDS011;15961;54.678;9.110;2022-10-22T03:34:33;147.95;;;58.13;;
28822;SDS011;15961;54.678;9.110;2022-10-22T03:36:59;142.65;;;61.65;;
28822;SDS011;15961;54.678;9.110;2022-10-22T03:39:26;183.65;;;60.13;;
28822;SDS011;15961;54.678;9.110;2022-10-22T03:41:53;162.40;;;57.72;;
28822;SDS011;15961;54.678;9.110;2022-10-22T03:44:20;211.52;;;58.55;;
28822;SDS011;15961;54.678;9.110;2022-10-22T03:46:47;143.27;;;56.40;;
28822;SDS011;15961;54.678;9.110;2022-10-22T03:49:13;166.77;;;60.90;;
28822;SDS011;15961;54.678;9.110;2022-10-22T03:51:38;449.15;;;67.88;;
28822;SDS011;15961;54.678;9.110;2022-10-22T03:54:04;442.92;;;73.30;;
28822;SDS011;15961;54.678;9.110;2022-10-22T03:56:30;495.83;;;73.90;;
28822;SDS011;15961;54.678;9.110;2022-10-22T03:58:56;544.13;;;74.88;;
28822;SDS011;15961;54.678;9.110;2022-10-22T04:01:23;207.65;;;65.07;;
28822;SDS011;15961;54.678;9.110;2022-10-22T04:03:50;155.90;;;59.95;;
28822;SDS011;15961;54.678;9.110;2022-10-22T04:06:15;378.42;;;64.70;;
28822;SDS011;15961;54.678;9.110;2022-10-22T04:08:42;276.15;;;58.97;;
28822;SDS011;15961;54.678;9.110;2022-10-22T04:11:09;164.80;;;60.28;;
28822;SDS011;15961;54.678;9.110;2022-10-22T04:13:36;114.22;;;50.60;;
28822;SDS011;15961;54.678;9.110;2022-10-22T04:18:38;118.25;;;52.70;;
28822;SDS011;15961;54.678;9.110;2022-10-22T04:21:05;310.13;;;58.50;;
28822;SDS011;15961;54.678;9.110;2022-10-22T04:23:32;111.57;;;51.38;;
28822;SDS011;15961;54.678;9.110;2022-10-22T04:25:58;128.63;;;53.03;;
28822;SDS011;15961;54.678;9.110;2022-10-22T04:28:25;110.57;;;52.00;;
28822;SDS011;15961;54.678;9.110;2022-10-22T04:30:50;474.63;;;68.25;;
28822;SDS011;15961;54.678;9.110;2022-10-22T04:33:16;114.18;;;50.17;;
28822;SDS011;15961;54.678;9.110;2022-10-22T04:35:41;183.38;;;55.13;;
28822;SDS011;15961;54.678;9.110;2022-10-22T04:38:07;119.05;;;54.67;;
28822;SDS011;15961;54.678;9.110;2022-10-22T04:40:32;146.27;;;54.28;;
28822;SDS011;15961;54.678;9.110;2022-10-22T04:42:58;188.40;;;57.53;;
28822;SDS011;15961;54.678;9.110;2022-10-22T04:45:23;420.67;;;67.35;;
28822;SDS011;15961;54.678;9.110;2022-10-22T04:47:49;128.05;;;50.92;;
28822;SDS011;15961;54.678;9.110;2022-10-22T04:50:14;261.23;;;56.88;;
28822;SDS011;15961;54.678;9.110;2022-10-22T04:52:40;152.10;;;52.70;;
28822;SDS011;15961;54.678;9.110;2022-10-22T04:55:06;123.07;;;48.33;;
28822;SDS011;15961;54.678;9.110;2022-10-22T04:57:31;226.75;;;57.67;;
28822;SDS011;15961;54.678;9.110;2022-10-22T04:59:57;234.10;;;59.92;;
28822;SDS011;15961;54.678;9.110;2022-10-22T05:02:22;213.10;;;59.75;;
28822;SDS011;15961;54.678;9.110;2022-10-22T05:04:48;134.50;;;57.22;;
28822;SDS011;15961;54.678;9.110;2022-10-22T05:07:14;109.95;;;49.63;;
28822;SDS011;15961;54.678;9.110;2022-10-22T05:09:39;98.75;;;47.97;;
28822;SDS011;15961;54.678;9.110;2022-10-22T05:12:05;86.00;;;43.05;;
28822;SDS011;15961;54.678;9.110;2022-10-22T05:14:31;95.88;;;44.05;;
28822;SDS011;15961;54.678;9.110;2022-10-22T05:16:57;118.70;;;44.80;;
28822;SDS011;15961;54.678;9.110;2022-10-22T05:19:24;103.10;;;48.42;;
28822;SDS011;15961;54.678;9.110;2022-10-22T05:21:51;116.53;;;54.15;;
28822;SDS011;15961;54.678;9.110;2022-10-22T05:24:18;100.43;;;49.25;;
28822;SDS011;15961;54.678;9.110;2022-10-22T05:26:44;112.25;;;53.80;;
28822;SDS011;15961;54.678;9.110;2022-10-22T05:29:09;114.80;;;51.10;;
28822;SDS011;15961;54.678;9.110;2022-10-22T05:31:35;248.48;;;55.63;;
28822;SDS011;15961;54.678;9.110;2022-10-22T05:34:02;89.22;;;45.47;;
28822;SDS011;15961;54.678;9.110;2022-10-22T05:36:28;82.20;;;41.53;;
28822;SDS011;15961;54.678;9.110;2022-10-22T05:38:55;545.83;;;73.25;;
28822;SDS011;15961;54.678;9.110;2022-10-22T05:41:22;190.52;;;54.60;;
28822;SDS011;15961;54.678;9.110;2022-10-22T05:43:49;258.98;;;55.42;;
28822;SDS011;15961;54.678;9.110;2022-10-22T05:46:16;259.60;;;58.67;;
28822;SDS011;15961;54.678;9.110;2022-10-22T05:48:43;107.20;;;52.08;;
28822;SDS011;15961;54.678;9.110;2022-10-22T05:51:12;87.03;;;45.10;;
28822;SDS011;15961;54.678;9.110;2022-10-22T05:53:39;351.20;;;60.13;;
28822;SDS011;15961;54.678;9.110;2022-10-22T05:56:07;310.65;;;59.95;;
28822;SDS011;15961;54.678;9.110;2022-10-22T05:58:35;181.50;;;55.58;;
28822;SDS011;15961;54.678;9.110;2022-10-22T06:01:02;153.55;;;50.65;;
28822;SDS011;15961;54.678;9.110;2022-10-22T06:03:29;229.50;;;58.97;;
28822;SDS011;15961;54.678;9.110;2022-10-22T06:05:56;440.08;;;66.35;;
28822;SDS011;15961;54.678;9.110;2022-10-22T06:08:24;321.17;;;59.63;;
28822;SDS011;15961;54.678;9.110;2022-10-22T06:10:49;303.75;;;58.80;;
28822;SDS011;15961;54.678;9.110;2022-10-22T06:13:15;320.48;;;60.00;;
28822;SDS011;15961;54.678;9.110;2022-10-22T06:15:40;160.82;;;52.03;;
28822;SDS011;15961;54.678;9.110;2022-10-22T06:18:07;102.90;;;50.05;;
28822;SDS011;15961;54.678;9.110;2022-10-22T06:20:33;260.27;;;56.38;;
28822;SDS011;15961;54.678;9.110;2022-10-22T06:22:58;222.18;;;53.08;;
28822;SDS011;15961;54.678;9.110;2022-10-22T06:25:24;186.07;;;56.15;;
28822;SDS011;15961;54.678;9.110;2022-10-22T06:27:50;147.93;;;52.17;;
28822;SDS011;15961;54.678;9.110;2022-10-22T06:30:15;93.97;;;45.45;;
28822;SDS011;15961;54.678;9.110;2022-10-22T06:32:41;91.70;;;46.78;;
28822;SDS011;15961;54.678;9.110;2022-10-22T06:35:06;216.57;;;52.65;;
28822;SDS011;15961;54.678;9.110;2022-10-22T06:37:32;121.00;;;49.67;;
28822;SDS011;15961;54.678;9.110;2022-10-22T06:39:58;160.32;;;52.35;;
28822;SDS011;15961;54.678;9.110;2022-10-22T06:42:23;438.10;;;65.53;;
28822;SDS011;15961;54.678;9.110;2022-10-22T06:44:49;114.70;;;52.05;;
28822;SDS011;15961;54.678;9.110;2022-10-22T06:47:14;196.32;;;56.83;;
28822;SDS011;15961;54.678;9.110;2022-10-22T06:49:40;114.80;;;48.75;;
28822;SDS011;15961;54.678;9.110;2022-10-22T06:52:06;209.95;;;54.40;;
28822;SDS011;15961;54.678;9.110;2022-10-22T06:54:32;92.03;;;45.95;;
28822;SDS011;15961;54.678;9.110;2022-10-22T06:56:57;120.72;;;45.88;;
28822;SDS011;15961;54.678;9.110;2022-10-22T06:59:23;171.70;;;47.60;;
28822;SDS011;15961;54.678;9.110;2022-10-22T07:01:48;95.07;;;45.88;;
28822;SDS011;15961;54.678;9.110;2022-10-22T07:04:14;78.82;;;42.30;;
28822;SDS011;15961;54.678;9.110;2022-10-22T07:06:39;69.45;;;39.35;;
28822;SDS011;15961;54.678;9.110;2022-10-22T07:09:05;79.22;;;42.13;;
28822;SDS011;15961;54.678;9.110;2022-10-22T07:11:35;126.60;;;43.78;;
28822;SDS011;15961;54.678;9.110;2022-10-22T07:14:03;113.90;;;48.25;;
28822;SDS011;15961;54.678;9.110;2022-10-22T07:16:28;92.28;;;44.40;;
28822;SDS011;15961;54.678;9.110;2022-10-22T07:18:54;85.22;;;42.90;;
28822;SDS011;15961;54.678;9.110;2022-10-22T07:21:19;122.40;;;50.13;;
28822;SDS011;15961;54.678;9.110;2022-10-22T07:23:46;143.35;;;48.05;;
28822;SDS011;15961;54.678;9.110;2022-10-22T07:26:12;86.05;;;44.42;;
28822;SDS011;15961;54.678;9.110;2022-10-22T07:28:39;96.68;;;46.15;;
28822;SDS011;15961;54.678;9.110;2022-10-22T07:31:06;85.60;;;44.75;;
28822;SDS011;15961;54.678;9.110;2022-10-22T07:33:33;106.45;;;46.78;;
28822;SDS011;15961;54.678;9.110;2022-10-22T07:35:59;118.55;;;49.38;;
28822;SDS011;15961;54.678;9.110;2022-10-22T07:38:26;88.90;;;45.65;;
28822;SDS011;15961;54.678;9.110;2022-10-22T07:40:53;92.82;;;45.33;;
28822;SDS011;15961;54.678;9.110;2022-10-22T07:43:19;88.20;;;45.30;;
28822;SDS011;15961;54.678;9.110;2022-10-22T07:45:44;102.22;;;46.40;;
28822;SDS011;15961;54.678;9.110;2022-10-22T07:48:10;92.72;;;44.00;;
28822;SDS011;15961;54.678;9.110;2022-10-22T07:50:36;119.70;;;48.17;;
28822;SDS011;15961;54.678;9.110;2022-10-22T07:53:02;85.18;;;41.28;;
28822;SDS011;15961;54.678;9.110;2022-10-22T07:55:27;82.78;;;41.35;;
28822;SDS011;15961;54.678;9.110;2022-10-22T07:57:53;70.93;;;37.53;;
28822;SDS011;15961;54.678;9.110;2022-10-22T08:00:18;84.47;;;41.55;;
28822;SDS011;15961;54.678;9.110;2022-10-22T08:02:44;78.28;;;42.13;;
28822;SDS011;15961;54.678;9.110;2022-10-22T08:05:10;81.75;;;43.92;;
28822;SDS011;15961;54.678;9.110;2022-10-22T08:07:37;82.40;;;44.30;;
28822;SDS011;15961;54.678;9.110;2022-10-22T08:10:04;125.07;;;47.80;;
28822;SDS011;15961;54.678;9.110;2022-10-22T08:12:30;113.45;;;44.25;;
28822;SDS011;15961;54.678;9.110;2022-10-22T08:14:56;154.98;;;46.80;;
28822;SDS011;15961;54.678;9.110;2022-10-22T08:17:21;145.32;;;43.45;;
28822;SDS011;15961;54.678;9.110;2022-10-22T08:19:47;155.63;;;46.00;;
28822;SDS011;15961;54.678;9.110;2022-10-22T08:22:12;298.20;;;49.97;;
28822;SDS011;15961;54.678;9.110;2022-10-22T08:24:38;168.93;;;47.13;;
28822;SDS011;15961;54.678;9.110;2022-10-22T08:27:04;174.00;;;46.60;;
28822;SDS011;15961;54.678;9.110;2022-10-22T08:29:29;170.20;;;45.92;;
28822;SDS011;15961;54.678;9.110;2022-10-22T08:31:55;213.43;;;46.83;;
28822;SDS011;15961;54.678;9.110;2022-10-22T08:34:20;87.22;;;43.15;;
28822;SDS011;15961;54.678;9.110;2022-10-22T08:36:46;122.07;;;45.20;;
28822;SDS011;15961;54.678;9.110;2022-10-22T08:39:11;95.78;;;43.28;;
28822;SDS011;15961;54.678;9.110;2022-10-22T08:44:41;73.93;;;42.63;;
28822;SDS011;15961;54.678;9.110;2022-10-22T08:47:22;95.72;;;47.80;;
28822;SDS011;15961;54.678;9.110;2022-10-22T08:49:52;104.00;;;50.78;;
28822;SDS011;15961;54.678;9.110;2022-10-22T08:52:20;89.03;;;47.85;;
28822;SDS011;15961;54.678;9.110;2022-10-22T08:54:50;96.97;;;49.55;;
28822;SDS011;15961;54.678;9.110;2022-10-22T09:00:10;103.85;;;49.38;;
28822;SDS011;15961;54.678;9.110;2022-10-22T09:02:55;91.25;;;46.20;;
28822;SDS011;15961;54.678;9.110;2022-10-22T09:08:16;87.68;;;49.33;;
28822;SDS011;15961;54.678;9.110;2022-10-22T09:10:47;85.45;;;47.55;;
28822;SDS011;15961;54.678;9.110;2022-10-22T09:13:27;99.20;;;49.95;;
28822;SDS011;15961;54.678;9.110;2022-10-22T09:16:00;96.07;;;49.47;;
28822;SDS011;15961;54.678;9.110;2022-10-22T09:18:38;86.85;;;47.97;;
28822;SDS011;15961;54.678;9.110;2022-10-22T09:21:28;79.18;;;41.92;;
28822;SDS011;15961;54.678;9.110;2022-10-22T09:23:59;81.35;;;43.83;;
28822;SDS011;15961;54.678;9.110;2022-10-22T09:26:36;76.70;;;43.58;;
28822;SDS011;15961;54.678;9.110;2022-10-22T09:29:04;73.55;;;44.17;;
28822;SDS011;15961;54.678;9.110;2022-10-22T09:31:31;75.43;;;43.30;;
28822;SDS011;15961;54.678;9.110;2022-10-22T09:33:58;79.90;;;44.17;;
28822;SDS011;15961;54.678;9.110;2022-10-22T09:36:29;59.55;;;36.28;;
28822;SDS011;15961;54.678;9.110;2022-10-22T09:38:55;76.13;;;37.45;;
28822;SDS011;15961;54.678;9.110;2022-10-22T09:41:25;60.30;;;36.05;;
28822;SDS011;15961;54.678;9.110;2022-10-22T09:43:55;67.93;;;36.50;;
28822;SDS011;15961;54.678;9.110;2022-10-22T09:46:23;67.35;;;36.83;;
28822;SDS011;15961;54.678;9.110;2022-10-22T09:48:59;54.78;;;33.05;;
28822;SDS011;15961;54.678;9.110;2022-10-22T09:51:47;52.63;;;30.73;;
28822;SDS011;15961;54.678;9.110;2022-10-22T09:54:20;60.97;;;32.22;;
28822;SDS011;15961;54.678;9.110;2022-10-22T09:56:49;53.83;;;30.33;;
28822;SDS011;15961;54.678;9.110;2022-10-22T10:01:55;51.63;;;30.80;;
28822;SDS011;15961;54.678;9.110;2022-10-22T10:04:45;53.65;;;31.92;;
28822;SDS011;15961;54.678;9.110;2022-10-22T10:07:19;49.65;;;29.58;;
28822;SDS011;15961;54.678;9.110;2022-10-22T10:09:45;49.47;;;28.95;;
28822;SDS011;15961;54.678;9.110;2022-10-22T10:14:47;43.05;;;27.42;;
28822;SDS011;15961;54.678;9.110;2022-10-22T10:17:38;48.28;;;25.88;;
28822;SDS011;15961;54.678;9.110;2022-10-22T10:25:41;50.13;;;27.65;;
28822;SDS011;15961;54.678;9.110;2022-10-22T10:28:28;41.35;;;25.35;;
28822;SDS011;15961;54.678;9.110;2022-10-22T10:34:14;47.78;;;25.10;;
28822;SDS011;15961;54.678;9.110;2022-10-22T10:36:44;37.78;;;22.52;;
28822;SDS011;15961;54.678;9.110;2022-10-22T10:39:17;48.40;;;22.33;;
28822;SDS011;15961;54.678;9.110;2022-10-22T10:50:39;38.05;;;19.67;;
28822;SDS011;15961;54.678;9.110;2022-10-22T10:53:33;34.92;;;17.70;;
28822;SDS011;15961;54.678;9.110;2022-10-22T11:07:52;32.33;;;14.98;;
28822;SDS011;15961;54.678;9.110;2022-10-22T11:13:20;20.65;;;10.82;;
28822;SDS011;15961;54.678;9.110;2022-10-22T11:16:00;19.63;;;10.45;;
28822;SDS011;15961;54.678;9.110;2022-10-22T11:18:30;20.55;;;9.45;;
28822;SDS011;15961;54.678;9.110;2022-10-22T11:23:51;29.10;;;11.15;;
28822;SDS011;15961;54.678;9.110;2022-10-22T11:26:32;18.58;;;9.32;;
28822;SDS011;15961;54.678;9.110;2022-10-22T11:29:04;29.20;;;10.50;;
28822;SDS011;15961;54.678;9.110;2022-10-22T11:31:34;23.05;;;9.05;;
28822;SDS011;15961;54.678;9.110;2022-10-22T11:36:29;18.95;;;8.90;;
28822;SDS011;15961;54.678;9.110;2022-10-22T11:38:55;32.45;;;9.82;;
28822;SDS011;15961;54.678;9.110;2022-10-22T11:41:23;28.90;;;9.15;;
28822;SDS011;15961;54.678;9.110;2022-10-22T11:47:07;18.95;;;7.47;;
28822;SDS011;15961;54.678;9.110;2022-10-22T11:49:43;16.60;;;7.80;;
28822;SDS011;15961;54.678;9.110;2022-10-22T11:52:23;29.40;;;7.25;;
28822;SDS011;15961;54.678;9.110;2022-10-22T11:54:52;24.20;;;6.75;;
28822;SDS011;15961;54.678;9.110;2022-10-22T11:57:21;16.35;;;5.93;;
28822;SDS011;15961;54.678;9.110;2022-10-22T11:59:52;19.58;;;6.63;;
28822;SDS011;15961;54.678;9.110;2022-10-22T12:05:32;26.10;;;8.55;;
28822;SDS011;15961;54.678;9.110;2022-10-22T12:08:00;15.07;;;7.15;;
28822;SDS011;15961;54.678;9.110;2022-10-22T12:10:33;21.13;;;7.43;;
28822;SDS011;15961;54.678;9.110;2022-10-22T12:13:16;19.65;;;7.60;;
28822;SDS011;15961;54.678;9.110;2022-10-22T12:15:50;16.83;;;7.28;;
28822;SDS011;15961;54.678;9.110;2022-10-22T12:18:18;19.73;;;8.10;;
28822;SDS011;15961;54.678;9.110;2022-10-22T12:20:50;14.35;;;7.70;;
28822;SDS011;15961;54.678;9.110;2022-10-22T12:23:17;20.25;;;7.63;;
28822;SDS011;15961;54.678;9.110;2022-10-22T12:25:42;24.15;;;9.15;;
28822;SDS011;15961;54.678;9.110;2022-10-22T12:28:10;19.83;;;8.57;;
28822;SDS011;15961;54.678;9.110;2022-10-22T12:30:37;24.10;;;8.82;;
28822;SDS011;15961;54.678;9.110;2022-10-22T12:33:04;27.27;;;8.32;;
28822;SDS011;15961;54.678;9.110;2022-10-22T12:35:40;16.67;;;7.45;;
28822;SDS011;15961;54.678;9.110;2022-10-22T12:38:11;15.32;;;7.05;;
28822;SDS011;15961;54.678;9.110;2022-10-22T12:40:39;26.52;;;8.85;;
28822;SDS011;15961;54.678;9.110;2022-10-22T12:43:13;25.95;;;8.63;;
28822;SDS011;15961;54.678;9.110;2022-10-22T12:45:43;20.60;;;7.78;;
28822;SDS011;15961;54.678;9.110;2022-10-22T12:48:15;19.35;;;7.55;;
28822;SDS011;15961;54.678;9.110;2022-10-22T12:50:43;22.38;;;8.20;;
28822;SDS011;15961;54.678;9.110;2022-10-22T12:53:32;21.25;;;8.27;;
28822;SDS011;15961;54.678;9.110;2022-10-22T12:56:00;25.23;;;9.00;;
28822;SDS011;15961;54.678;9.110;2022-10-22T12:58:28;21.88;;;8.30;;
28822;SDS011;15961;54.678;9.110;2022-10-22T13:01:02;17.88;;;9.60;;
28822;SDS011;15961;54.678;9.110;2022-10-22T13:03:30;24.48;;;7.72;;
28822;SDS011;15961;54.678;9.110;2022-10-22T13:06:19;25.83;;;10.05;;
28822;SDS011;15961;54.678;9.110;2022-10-22T13:09:01;30.50;;;10.30;;
28822;SDS011;15961;54.678;9.110;2022-10-22T13:11:47;35.33;;;11.25;;
28822;SDS011;15961;54.678;9.110;2022-10-22T13:16:42;21.40;;;11.18;;
28822;SDS011;15961;54.678;9.110;2022-10-22T13:19:40;21.50;;;10.30;;
28822;SDS011;15961;54.678;9.110;2022-10-22T13:27:51;20.15;;;9.02;;
28822;SDS011;15961;54.678;9.110;2022-10-22T13:30:27;28.75;;;10.70;;
28822;SDS011;15961;54.678;9.110;2022-10-22T13:33:00;26.65;;;10.77;;
28822;SDS011;15961;54.678;9.110;2022-10-22T13:35:29;31.67;;;10.85;;
28822;SDS011;15961;54.678;9.110;2022-10-22T13:37:57;22.50;;;8.95;;
28822;SDS011;15961;54.678;9.110;2022-10-22T13:40:23;24.77;;;10.40;;
28822;SDS011;15961;54.678;9.110;2022-10-22T13:42:49;32.38;;;12.18;;
28822;SDS011;15961;54.678;9.110;2022-10-22T13:45:15;27.13;;;10.05;;
28822;SDS011;15961;54.678;9.110;2022-10-22T13:47:42;28.48;;;11.23;;
28822;SDS011;15961;54.678;9.110;2022-10-22T13:50:13;35.58;;;11.93;;
28822;SDS011;15961;54.678;9.110;2022-10-22T13:52:45;27.30;;;11.43;;
28822;SDS011;15961;54.678;9.110;2022-10-22T13:55:25;27.83;;;11.85;;
28822;SDS011;15961;54.678;9.110;2022-10-22T13:57:59;24.02;;;11.18;;
28822;SDS011;15961;54.678;9.110;2022-10-22T14:00:36;34.45;;;11.18;;
28822;SDS011;15961;54.678;9.110;2022-10-22T14:03:04;31.27;;;11.32;;
28822;SDS011;15961;54.678;9.110;2022-10-22T14:05:33;28.02;;;12.55;;
28822;SDS011;15961;54.678;9.110;2022-10-22T14:07:59;31.08;;;12.70;;
28822;SDS011;15961;54.678;9.110;2022-10-22T14:10:26;27.88;;;12.40;;
28822;SDS011;15961;54.678;9.110;2022-10-22T14:12:51;41.10;;;13.05;;
28822;SDS011;15961;54.678;9.110;2022-10-22T14:15:17;28.42;;;12.02;;
28822;SDS011;15961;54.678;9.110;2022-10-22T14:17:46;29.25;;;12.55;;
28822;SDS011;15961;54.678;9.110;2022-10-22T14:20:20;30.40;;;12.93;;
28822;SDS011;15961;54.678;9.110;2022-10-22T14:22:48;27.55;;;12.38;;
28822;SDS011;15961;54.678;9.110;2022-10-22T14:25:18;51.75;;;14.05;;
28822;SDS011;15961;54.678;9.110;2022-10-22T14:27:46;34.40;;;11.93;;
28822;SDS011;15961;54.678;9.110;2022-10-22T14:30:12;27.70;;;12.57;;
28822;SDS011;15961;54.678;9.110;2022-10-22T14:32:43;36.58;;;12.95;;
28822;SDS011;15961;54.678;9.110;2022-10-22T14:35:12;30.23;;;12.48;;
28822;SDS011;15961;54.678;9.110;2022-10-22T14:37:40;28.02;;;13.07;;
28822;SDS011;15961;54.678;9.110;2022-10-22T14:40:06;43.08;;;15.18;;
28822;SDS011;15961;54.678;9.110;2022-10-22T14:42:33;35.28;;;14.02;;
28822;SDS011;15961;54.678;9.110;2022-10-22T14:45:04;32.67;;;14.13;;
28822;SDS011;15961;54.678;9.110;2022-10-22T14:47:30;33.72;;;12.45;;
28822;SDS011;15961;54.678;9.110;2022-10-22T14:49:56;32.75;;;12.65;;
28822;SDS011;15961;54.678;9.110;2022-10-22T14:52:21;24.63;;;13.27;;
28822;SDS011;15961;54.678;9.110;2022-10-22T14:54:47;34.17;;;14.63;;
28822;SDS011;15961;54.678;9.110;2022-10-22T14:57:13;32.33;;;14.38;;
28822;SDS011;15961;54.678;9.110;2022-10-22T14:59:40;37.40;;;13.77;;
28822;SDS011;15961;54.678;9.110;2022-10-22T15:02:07;32.47;;;13.15;;
28822;SDS011;15961;54.678;9.110;2022-10-22T15:04:36;29.83;;;11.60;;
28822;SDS011;15961;54.678;9.110;2022-10-22T15:07:01;33.20;;;13.05;;
28822;SDS011;15961;54.678;9.110;2022-10-22T15:09:27;35.38;;;12.75;;
28822;SDS011;15961;54.678;9.110;2022-10-22T15:11:53;31.65;;;13.32;;
28822;SDS011;15961;54.678;9.110;2022-10-22T15:14:18;27.15;;;12.77;;
28822;SDS011;15961;54.678;9.110;2022-10-22T15:16:44;37.00;;;13.45;;
28822;SDS011;15961;54.678;9.110;2022-10-22T15:19:09;33.53;;;13.60;;
28822;SDS011;15961;54.678;9.110;2022-10-22T15:21:35;28.42;;;12.88;;
28822;SDS011;15961;54.678;9.110;2022-10-22T15:24:00;35.85;;;13.13;;
28822;SDS011;15961;54.678;9.110;2022-10-22T15:26:26;33.83;;;13.00;;
28822;SDS011;15961;54.678;9.110;2022-10-22T15:28:53;29.40;;;14.20;;
28822;SDS011;15961;54.678;9.110;2022-10-22T15:34:07;30.25;;;13.73;;
28822;SDS011;15961;54.678;9.110;2022-10-22T15:36:32;31.50;;;12.88;;
28822;SDS011;15961;54.678;9.110;2022-10-22T15:38:58;31.02;;;12.93;;
28822;SDS011;15961;54.678;9.110;2022-10-22T15:41:23;33.78;;;13.15;;
28822;SDS011;15961;54.678;9.110;2022-10-22T15:43:49;26.67;;;12.82;;
28822;SDS011;15961;54.678;9.110;2022-10-22T15:46:15;35.40;;;14.18;;
28822;SDS011;15961;54.678;9.110;2022-10-22T15:48:42;33.15;;;14.45;;
28822;SDS011;15961;54.678;9.110;2022-10-22T15:51:12;32.42;;;14.52;;
28822;SDS011;15961;54.678;9.110;2022-10-22T15:53:39;20.50;;;12.65;;
28822;SDS011;15961;54.678;9.110;2022-10-22T15:56:06;32.80;;;12.90;;
28822;SDS011;15961;54.678;9.110;2022-10-22T15:58:32;28.55;;;13.30;;